sensor_id;sensor_type;location;lat;lon;timestamp;pressure;altitude;pressure_sealevel;temperature;humidity
5996;BME280;3026;53.612;7.278;2023-09-19T00:02:27;100176.72;;;16.49;100.00
5996;BME280;3026;53.612;7.278;2023-09-19T00:04:54;100179.28;;;16.44;100.00
5996;BME280;3026;53.612;7.278;2023-09-19T00:07:31;100181.88;;;16.39;100.00
5996;BME280;3026;53.612;7.278;2023-09-19T00:09:58;100169.66;;;16.34;100.00
5996;BME280;3026;53.612;7.278;2023-09-19T00:12:25;100181.09;;;16.31;100.00
5996;BME280;3026;53.612;7.278;2023-09-19T00:14:54;100179.25;;;16.25;100.00
5996;BME280;3026;53.612;7.278;2023-09-19T00:17:22;100186.06;;;16.23;100.00
5996;BME280;3026;53.612;7.278;2023-09-19T00:19:50;100180.38;;;16.18;100.00
5996;BME280;3026;53.612;7.278;2023-09-19T00:22:18;100182.53;;;16.16;100.00
5996;BME280;3026;53.612;7.278;2023-09-19T00:24:46;100174.97;;;16.11;100.00
5996;BME280;3026;53.612;7.278;2023-09-19T00:27:14;100183.63;;;16.08;100.00
5996;BME280;3026;53.612;7.278;2023-09-19T00:29:41;100198.28;;;16.02;100.00
5996;BME280;3026;53.612;7.278;2023-09-19T00:32:09;100197.91;;;15.98;100.00
5996;BME280;3026;53.612;7.278;2023-09-19T00:34:36;100210.16;;;15.96;100.00
5996;BME280;3026;53.612;7.278;2023-09-19T00:37:03;100218.25;;;15.91;100.00
5996;BME280;3026;53.612;7.278;2023-09-19T00:39:32;100209.81;;;15.86;100.00
5996;BME280;3026;53.612;7.278;2023-09-19T00:41:59;100225.09;;;15.82;100.00
5996;BME280;3026;53.612;7.278;2023-09-19T00:44:30;100229.34;;;15.78;100.00
5996;BME280;3026;53.612;7.278;2023-09-19T00:47:02;100237.19;;;15.74;100.00
5996;BME280;3026;53.612;7.278;2023-09-19T00:49:32;100237.84;;;15.69;100.00
5996;BME280;3026;53.612;7.278;2023-09-19T00:51:59;100234.72;;;15.66;100.00
5996;BME280;3026;53.612;7.278;2023-09-19T00:54:27;100234.94;;;15.64;100.00
5996;BME280;3026;53.612;7.278;2023-09-19T00:56:55;100234.28;;;15.62;100.00
5996;BME280;3026;53.612;7.278;2023-09-19T00:59:22;100242.75;;;15.61;100.00
5996;BME280;3026;53.612;7.278;2023-09-19T01:01:50;100240.00;;;15.61;100.00
5996;BME280;3026;53.612;7.278;2023-09-19T01:04:19;100249.50;;;15.58;100.00
5996;BME280;3026;53.612;7.278;2023-09-19T01:06:55;100245.91;;;15.58;100.00
5996;BME280;3026;53.612;7.278;2023-09-19T01:09:23;100261.56;;;15.57;100.00
5996;BME280;3026;53.612;7.278;2023-09-19T01:11:52;100255.22;;;15.57;100.00
5996;BME280;3026;53.612;7.278;2023-09-19T01:14:25;100250.19;;;15.54;100.00
5996;BME280;3026;53.612;7.278;2023-09-19T01:17:01;100260.31;;;15.53;100.00
5996;BME280;3026;53.612;7.278;2023-09-19T01:20:03;100258.22;;;15.48;100.00
5996;BME280;3026;53.612;7.278;2023-09-19T01:22:45;100257.38;;;15.48;100.00
5996;BME280;3026;53.612;7.278;2023-09-19T01:25:34;100268.81;;;15.45;100.00
5996;BME280;3026;53.612;7.278;2023-09-19T01:28:15;100267.56;;;15.41;100.00
5996;BME280;3026;53.612;7.278;2023-09-19T01:30:57;100270.72;;;15.38;100.00
5996;BME280;3026;53.612;7.278;2023-09-19T01:33:27;100278.97;;;15.38;100.00
5996;BME280;3026;53.612;7.278;2023-09-19T01:35:59;100277.28;;;15.37;100.00
5996;BME280;3026;53.612;7.278;2023-09-19T01:38:28;100276.66;;;15.35;100.00
5996;BME280;3026;53.612;7.278;2023-09-19T01:41:00;100280.69;;;15.32;100.00
5996;BME280;3026;53.612;7.278;2023-09-19T01:43:34;100281.97;;;15.30;100.00
5996;BME280;3026;53.612;7.278;2023-09-19T01:46:13;100291.28;;;15.29;100.00
5996;BME280;3026;53.612;7.278;2023-09-19T01:48:48;100287.88;;;15.27;100.00
5996;BME280;3026;53.612;7.278;2023-09-19T01:51:21;100288.94;;;15.26;100.00
5996;BME280;3026;53.612;7.278;2023-09-19T01:53:57;100282.84;;;15.24;100.00
5996;BME280;3026;53.612;7.278;2023-09-19T01:56:34;100285.81;;;15.22;100.00
5996;BME280;3026;53.612;7.278;2023-09-19T01:59:06;100294.25;;;15.21;100.00
5996;BME280;3026;53.612;7.278;2023-09-19T02:01:37;100288.16;;;15.18;100.00
5996;BME280;3026;53.612;7.278;2023-09-19T02:04:05;100292.16;;;15.16;100.00
5996;BME280;3026;53.612;7.278;2023-09-19T02:06:32;100299.75;;;15.14;100.00
5996;BME280;3026;53.612;7.278;2023-09-19T02:09:00;100286.25;;;15.12;100.00
5996;BME280;3026;53.612;7.278;2023-09-19T02:11:28;100290.06;;;15.11;100.00
5996;BME280;3026;53.612;7.278;2023-09-19T02:13:55;100297.69;;;15.09;100.00
5996;BME280;3026;53.612;7.278;2023-09-19T02:16:22;100290.06;;;15.05;100.00
5996;BME280;3026;53.612;7.278;2023-09-19T02:18:51;100298.53;;;15.03;100.00
5996;BME280;3026;53.612;7.278;2023-09-19T02:21:18;100300.66;;;15.01;100.00
5996;BME280;3026;53.612;7.278;2023-09-19T02:23:47;100295.59;;;14.98;100.00
5996;BME280;3026;53.612;7.278;2023-09-19T02:26:14;100299.84;;;14.94;100.00
5996;BME280;3026;53.612;7.278;2023-09-19T02:28:42;100295.59;;;14.92;100.00
5996;BME280;3026;53.612;7.278;2023-09-19T02:31:09;100297.72;;;14.89;100.00
5996;BME280;3026;53.612;7.278;2023-09-19T02:33:36;100295.19;;;14.88;100.00
5996;BME280;3026;53.612;7.278;2023-09-19T02:36:07;100306.59;;;14.85;100.00
5996;BME280;3026;53.612;7.278;2023-09-19T02:38:34;100296.06;;;14.82;100.00
5996;BME280;3026;53.612;7.278;2023-09-19T02:41:04;100301.94;;;14.79;100.00
5996;BME280;3026;53.612;7.278;2023-09-19T02:43:31;100300.25;;;14.78;100.00
5996;BME280;3026;53.612;7.278;2023-09-19T02:45:59;100302.38;;;14.76;100.00
5996;BME280;3026;53.612;7.278;2023-09-19T02:48:28;100307.47;;;14.72;100.00
5996;BME280;3026;53.612;7.278;2023-09-19T02:50:57;100310.41;;;14.71;100.00
5996;BME280;3026;53.612;7.278;2023-09-19T02:53:26;100304.94;;;14.71;100.00
5996;BME280;3026;53.612;7.278;2023-09-19T02:55:53;100300.69;;;14.68;100.00
5996;BME280;3026;53.612;7.278;2023-09-19T02:58:20;100303.66;;;14.67;100.00
5996;BME280;3026;53.612;7.278;2023-09-19T03:00:49;100307.88;;;14.63;100.00
5996;BME280;3026;53.612;7.278;2023-09-19T03:03:18;100311.69;;;14.62;100.00
5996;BME280;3026;53.612;7.278;2023-09-19T03:05:45;100312.09;;;14.58;100.00
5996;BME280;3026;53.612;7.278;2023-09-19T03:08:12;100309.78;;;14.55;100.00
5996;BME280;3026;53.612;7.278;2023-09-19T03:10:46;100313.56;;;14.54;100.00
5996;BME280;3026;53.612;7.278;2023-09-19T03:13:18;100318.44;;;14.52;100.00
5996;BME280;3026;53.612;7.278;2023-09-19T03:15:45;100322.25;;;14.51;100.00
5996;BME280;3026;53.612;7.278;2023-09-19T03:18:15;100309.59;;;14.50;100.00
5996;BME280;3026;53.612;7.278;2023-09-19T03:20:42;100317.19;;;14.48;100.00
5996;BME280;3026;53.612;7.278;2023-09-19T03:23:10;100312.94;;;14.46;100.00
5996;BME280;3026;53.612;7.278;2023-09-19T03:25:38;100313.78;;;14.46;100.00
5996;BME280;3026;53.612;7.278;2023-09-19T03:28:08;100328.56;;;14.45;100.00
5996;BME280;3026;53.612;7.278;2023-09-19T03:30:36;100328.72;;;14.44;100.00
5996;BME280;3026;53.612;7.278;2023-09-19T03:33:05;100328.09;;;14.42;100.00
5996;BME280;3026;53.612;7.278;2023-09-19T03:35:32;100325.16;;;14.43;100.00
5996;BME280;3026;53.612;7.278;2023-09-19T03:38:00;100327.25;;;14.41;100.00
5996;BME280;3026;53.612;7.278;2023-09-19T03:40:28;100320.09;;;14.40;100.00
5996;BME280;3026;53.612;7.278;2023-09-19T03:42:55;100327.25;;;14.41;100.00
5996;BME280;3026;53.612;7.278;2023-09-19T03:45:24;100328.94;;;14.42;100.00
5996;BME280;3026;53.612;7.278;2023-09-19T03:47:51;100338.22;;;14.41;100.00
5996;BME280;3026;53.612;7.278;2023-09-19T03:50:24;100330.84;;;14.42;100.00
5996;BME280;3026;53.612;7.278;2023-09-19T03:52:56;100330.63;;;14.43;100.00
5996;BME280;3026;53.612;7.278;2023-09-19T03:55:23;100326.88;;;14.44;100.00
5996;BME280;3026;53.612;7.278;2023-09-19T03:57:51;100330.25;;;14.46;100.00
5996;BME280;3026;53.612;7.278;2023-09-19T04:00:18;100326.47;;;14.47;100.00
5996;BME280;3026;53.612;7.278;2023-09-19T04:02:48;100315.06;;;14.50;100.00
5996;BME280;3026;53.612;7.278;2023-09-19T04:05:25;100324.34;;;14.49;100.00
5996;BME280;3026;53.612;7.278;2023-09-19T04:07:52;100338.69;;;14.51;100.00
5996;BME280;3026;53.612;7.278;2023-09-19T04:10:19;100335.31;;;14.49;100.00
5996;BME280;3026;53.612;7.278;2023-09-19T04:12:54;100340.19;;;14.47;100.00
5996;BME280;3026;53.612;7.278;2023-09-19T04:15:21;100335.09;;;14.44;100.00
5996;BME280;3026;53.612;7.278;2023-09-19T04:17:51;100338.22;;;14.41;100.00
5996;BME280;3026;53.612;7.278;2023-09-19T04:20:18;100338.66;;;14.38;100.00
5996;BME280;3026;53.612;7.278;2023-09-19T04:22:48;100335.28;;;14.36;100.00
5996;BME280;3026;53.612;7.278;2023-09-19T04:25:16;100342.84;;;14.34;100.00
5996;BME280;3026;53.612;7.278;2023-09-19T04:27:45;100335.69;;;14.33;100.00
5996;BME280;3026;53.612;7.278;2023-09-19T04:30:13;100353.41;;;14.30;100.00
5996;BME280;3026;53.612;7.278;2023-09-19T04:32:41;100352.78;;;14.28;100.00
5996;BME280;3026;53.612;7.278;2023-09-19T04:35:11;100363.75;;;14.28;100.00
5996;BME280;3026;53.612;7.278;2023-09-19T04:37:39;100362.28;;;14.26;100.00
5996;BME280;3026;53.612;7.278;2023-09-19T04:40:08;100371.13;;;14.28;100.00
5996;BME280;3026;53.612;7.278;2023-09-19T04:42:40;100373.25;;;14.26;100.00
5996;BME280;3026;53.612;7.278;2023-09-19T04:45:08;100363.34;;;14.25;100.00
5996;BME280;3026;53.612;7.278;2023-09-19T04:47:36;100364.38;;;14.24;100.00
5996;BME280;3026;53.612;7.278;2023-09-19T04:50:07;100370.91;;;14.23;100.00
5996;BME280;3026;53.612;7.278;2023-09-19T04:52:40;100371.94;;;14.22;100.00
5996;BME280;3026;53.612;7.278;2023-09-19T04:55:10;100368.56;;;14.20;100.00
5996;BME280;3026;53.612;7.278;2023-09-19T04:57:43;100385.03;;;14.20;100.00
5996;BME280;3026;53.612;7.278;2023-09-19T05:00:12;100386.09;;;14.19;100.00
5996;BME280;3026;53.612;7.278;2023-09-19T05:02:40;100392.19;;;14.21;100.00
5996;BME280;3026;53.612;7.278;2023-09-19T05:05:08;100381.22;;;14.21;100.00
5996;BME280;3026;53.612;7.278;2023-09-19T05:07:36;100369.22;;;14.22;100.00
5996;BME280;3026;53.612;7.278;2023-09-19T05:10:07;100375.53;;;14.22;100.00
5996;BME280;3026;53.612;7.278;2023-09-19T05:12:34;100371.94;;;14.22;100.00
5996;BME280;3026;53.612;7.278;2023-09-19T05:15:02;100373.63;;;14.23;100.00
5996;BME280;3026;53.612;7.278;2023-09-19T05:17:29;100372.78;;;14.22;100.00
5996;BME280;3026;53.612;7.278;2023-09-19T05:19:56;100381.03;;;14.22;100.00
5996;BME280;3026;53.612;7.278;2023-09-19T05:22:27;100379.13;;;14.23;100.00
5996;BME280;3026;53.612;7.278;2023-09-19T05:24:54;100376.38;;;14.23;100.00
5996;BME280;3026;53.612;7.278;2023-09-19T05:27:23;100384.59;;;14.23;100.00
5996;BME280;3026;53.612;7.278;2023-09-19T05:29:50;100379.97;;;14.23;100.00
5996;BME280;3026;53.612;7.278;2023-09-19T05:32:25;100381.84;;;14.23;100.00
5996;BME280;3026;53.612;7.278;2023-09-19T05:34:52;100384.59;;;14.23;100.00
5996;BME280;3026;53.612;7.278;2023-09-19T05:37:21;100385.25;;;14.25;100.00
5996;BME280;3026;53.612;7.278;2023-09-19T05:39:49;100384.22;;;14.26;100.00
5996;BME280;3026;53.612;7.278;2023-09-19T05:42:17;100380.41;;;14.27;100.00
5996;BME280;3026;53.612;7.278;2023-09-19T05:44:46;100389.28;;;14.29;100.00
5996;BME280;3026;53.612;7.278;2023-09-19T05:47:14;100390.97;;;14.30;100.00
5996;BME280;3026;53.612;7.278;2023-09-19T05:49:40;100390.13;;;14.29;100.00
5996;BME280;3026;53.612;7.278;2023-09-19T05:52:08;100391.81;;;14.30;100.00
5996;BME280;3026;53.612;7.278;2023-09-19T05:54:35;100387.16;;;14.31;100.00
5996;BME280;3026;53.612;7.278;2023-09-19T05:57:03;100378.72;;;14.32;100.00
5996;BME280;3026;53.612;7.278;2023-09-19T05:59:30;100392.22;;;14.34;100.00
5996;BME280;3026;53.612;7.278;2023-09-19T06:02:01;100399.41;;;14.35;100.00
5996;BME280;3026;53.612;7.278;2023-09-19T06:04:31;100390.16;;;14.36;100.00
5996;BME280;3026;53.612;7.278;2023-09-19T06:06:58;100393.50;;;14.38;100.00
5996;BME280;3026;53.612;7.278;2023-09-19T06:09:26;100402.38;;;14.40;100.00
5996;BME280;3026;53.612;7.278;2023-09-19T06:11:53;100402.38;;;14.40;100.00
5996;BME280;3026;53.612;7.278;2023-09-19T06:14:23;100410.38;;;14.42;100.00
5996;BME280;3026;53.612;7.278;2023-09-19T06:16:51;100410.84;;;14.45;100.00
5996;BME280;3026;53.612;7.278;2023-09-19T06:19:21;100410.84;;;14.45;100.00
5996;BME280;3026;53.612;7.278;2023-09-19T06:21:52;100418.00;;;14.46;100.00
5996;BME280;3026;53.612;7.278;2023-09-19T06:24:20;100426.91;;;14.48;100.00
5996;BME280;3026;53.612;7.278;2023-09-19T06:26:47;100426.69;;;14.50;100.00
5996;BME280;3026;53.612;7.278;2023-09-19T06:29:14;100426.47;;;14.51;100.00
5996;BME280;3026;53.612;7.278;2023-09-19T06:31:43;100427.13;;;14.53;100.00
5996;BME280;3026;53.612;7.278;2023-09-19T06:34:10;100429.84;;;14.53;100.00
5996;BME280;3026;53.612;7.278;2023-09-19T06:36:38;100439.34;;;14.57;100.00
5996;BME280;3026;53.612;7.278;2023-09-19T06:39:06;100438.28;;;14.58;100.00
5996;BME280;3026;53.612;7.278;2023-09-19T06:41:42;100437.06;;;14.61;100.00
5996;BME280;3026;53.612;7.278;2023-09-19T06:44:10;100434.09;;;14.63;100.00
5996;BME280;3026;53.612;7.278;2023-09-19T06:46:38;100437.47;;;14.65;100.00
5996;BME280;3026;53.612;7.278;2023-09-19T06:49:05;100445.28;;;14.68;100.00
5996;BME280;3026;53.612;7.278;2023-09-19T06:51:33;100448.66;;;14.70;100.00
5996;BME280;3026;53.612;7.278;2023-09-19T06:54:03;100443.16;;;14.70;100.00
5996;BME280;3026;53.612;7.278;2023-09-19T06:56:31;100434.53;;;14.73;100.00
5996;BME280;3026;53.612;7.278;2023-09-19T06:58:58;100444.25;;;14.75;100.00
5996;BME280;3026;53.612;7.278;2023-09-19T07:01:30;100453.94;;;14.78;100.00
5996;BME280;3026;53.612;7.278;2023-09-19T07:03:59;100446.34;;;14.80;100.00
5996;BME280;3026;53.612;7.278;2023-09-19T07:06:26;100448.69;;;14.83;100.00
5996;BME280;3026;53.612;7.278;2023-09-19T07:08:54;100449.31;;;14.85;100.00
5996;BME280;3026;53.612;7.278;2023-09-19T07:11:24;100448.06;;;14.87;100.00
5996;BME280;3026;53.612;7.278;2023-09-19T07:13:51;100439.59;;;14.89;100.00
5996;BME280;3026;53.612;7.278;2023-09-19T07:16:19;100436.44;;;14.92;100.00
5996;BME280;3026;53.612;7.278;2023-09-19T07:18:55;100462.81;;;14.93;100.00
5996;BME280;3026;53.612;7.278;2023-09-19T07:21:22;100459.06;;;14.94;100.00
5996;BME280;3026;53.612;7.278;2023-09-19T07:23:50;100461.59;;;14.96;100.00
5996;BME280;3026;53.612;7.278;2023-09-19T07:26:17;100448.69;;;14.96;100.00
5996;BME280;3026;53.612;7.278;2023-09-19T07:28:45;100464.53;;;15.01;100.00
5996;BME280;3026;53.612;7.278;2023-09-19T07:31:12;100461.56;;;15.02;100.00
5996;BME280;3026;53.612;7.278;2023-09-19T07:33:41;100454.81;;;15.05;100.00
5996;BME280;3026;53.612;7.278;2023-09-19T07:36:11;100458.84;;;15.09;100.00
5996;BME280;3026;53.612;7.278;2023-09-19T07:38:39;100465.78;;;15.11;100.00
5996;BME280;3026;53.612;7.278;2023-09-19T07:41:06;100454.38;;;15.14;100.00
5996;BME280;3026;53.612;7.278;2023-09-19T07:43:34;100454.59;;;15.20;100.00
5996;BME280;3026;53.612;7.278;2023-09-19T07:46:16;100448.06;;;15.21;100.00
5996;BME280;3026;53.612;7.278;2023-09-19T07:48:45;100446.78;;;15.23;100.00
5996;BME280;3026;53.612;7.278;2023-09-19T07:51:15;100443.38;;;15.28;100.00
5996;BME280;3026;53.612;7.278;2023-09-19T07:53:42;100442.97;;;15.31;100.00
5996;BME280;3026;53.612;7.278;2023-09-19T07:56:10;100446.97;;;15.35;100.00
5996;BME280;3026;53.612;7.278;2023-09-19T07:58:39;100453.94;;;15.37;100.00
5996;BME280;3026;53.612;7.278;2023-09-19T08:01:09;100448.22;;;15.39;100.00
5996;BME280;3026;53.612;7.278;2023-09-19T08:03:36;100447.81;;;15.42;100.00
5996;BME280;3026;53.612;7.278;2023-09-19T08:06:09;100454.34;;;15.47;100.00
5996;BME280;3026;53.612;7.278;2023-09-19T08:08:37;100450.97;;;15.52;100.00
5996;BME280;3026;53.612;7.278;2023-09-19T08:11:09;100446.72;;;15.56;100.00
5996;BME280;3026;53.612;7.278;2023-09-19T08:13:38;100440.41;;;15.62;100.00
5996;BME280;3026;53.612;7.278;2023-09-19T08:16:10;100452.22;;;15.69;100.00
5996;BME280;3026;53.612;7.278;2023-09-19T08:18:38;100445.44;;;15.79;100.00
5996;BME280;3026;53.612;7.278;2023-09-19T08:21:05;100450.91;;;15.85;100.00
5996;BME280;3026;53.612;7.278;2023-09-19T08:23:33;100460.59;;;15.94;100.00
5996;BME280;3026;53.612;7.278;2023-09-19T08:26:00;100470.75;;;16.00;100.00
5996;BME280;3026;53.612;7.278;2023-09-19T08:28:32;100468.19;;;16.05;100.00
5996;BME280;3026;53.612;7.278;2023-09-19T08:31:02;100477.25;;;16.13;100.00
5996;BME280;3026;53.612;7.278;2023-09-19T08:33:35;100466.00;;;16.21;100.00
5996;BME280;3026;53.612;7.278;2023-09-19T08:36:03;100466.81;;;16.28;100.00
5996;BME280;3026;53.612;7.278;2023-09-19T08:38:33;100468.47;;;16.36;100.00
5996;BME280;3026;53.612;7.278;2023-09-19T08:41:05;100481.34;;;16.42;100.00
5996;BME280;3026;53.612;7.278;2023-09-19T08:43:32;100470.31;;;16.48;100.00
5996;BME280;3026;53.612;7.278;2023-09-19T08:46:09;100473.81;;;16.62;100.00
5996;BME280;3026;53.612;7.278;2023-09-19T08:48:45;100473.75;;;16.75;100.00
5996;BME280;3026;53.612;7.278;2023-09-19T08:51:29;100477.94;;;16.84;100.00
5996;BME280;3026;53.612;7.278;2023-09-19T08:54:03;100483.34;;;16.98;100.00
5996;BME280;3026;53.612;7.278;2023-09-19T08:56:35;100481.78;;;17.08;100.00
5996;BME280;3026;53.612;7.278;2023-09-19T08:59:07;100485.13;;;17.17;100.00
5996;BME280;3026;53.612;7.278;2023-09-19T09:01:35;100475.91;;;17.30;100.00
5996;BME280;3026;53.612;7.278;2023-09-19T09:04:08;100485.34;;;17.40;100.00
5996;BME280;3026;53.612;7.278;2023-09-19T09:06:39;100495.63;;;17.52;100.00
5996;BME280;3026;53.612;7.278;2023-09-19T09:09:12;100486.63;;;17.63;100.00
5996;BME280;3026;53.612;7.278;2023-09-19T09:11:40;100478.47;;;17.68;100.00
5996;BME280;3026;53.612;7.278;2023-09-19T09:14:07;100483.13;;;17.74;100.00
5996;BME280;3026;53.612;7.278;2023-09-19T09:16:35;100479.91;;;17.77;100.00
5996;BME280;3026;53.612;7.278;2023-09-19T09:19:04;100481.84;;;17.76;100.00
5996;BME280;3026;53.612;7.278;2023-09-19T09:21:31;100487.28;;;17.83;100.00
5996;BME280;3026;53.612;7.278;2023-09-19T09:24:26;100475.63;;;17.81;100.00
5996;BME280;3026;53.612;7.278;2023-09-19T09:26:55;100478.84;;;17.78;100.00
5996;BME280;3026;53.612;7.278;2023-09-19T09:29:41;100477.16;;;17.77;100.00
5996;BME280;3026;53.612;7.278;2023-09-19T09:32:22;100476.69;;;17.80;100.00
5996;BME280;3026;53.612;7.278;2023-09-19T09:34:52;100468.66;;;17.78;100.00
5996;BME280;3026;53.612;7.278;2023-09-19T09:37:23;100473.31;;;17.78;100.00
5996;BME280;3026;53.612;7.278;2023-09-19T09:39:53;100480.53;;;17.79;100.00
5996;BME280;3026;53.612;7.278;2023-09-19T09:42:31;100477.94;;;17.84;100.00
5996;BME280;3026;53.612;7.278;2023-09-19T09:45:14;100471.59;;;17.84;100.00
5996;BME280;3026;53.612;7.278;2023-09-19T09:47:43;100471.50;;;17.90;100.00
5996;BME280;3026;53.612;7.278;2023-09-19T09:50:26;100482.22;;;17.98;100.00
5996;BME280;3026;53.612;7.278;2023-09-19T09:53:20;100490.63;;;18.03;100.00
5996;BME280;3026;53.612;7.278;2023-09-19T09:56:01;100488.50;;;18.05;100.00
5996;BME280;3026;53.612;7.278;2023-09-19T09:58:33;100484.88;;;18.05;100.00
5996;BME280;3026;53.612;7.278;2023-09-19T10:01:08;100484.50;;;18.01;100.00
5996;BME280;3026;53.612;7.278;2023-09-19T10:03:37;100498.59;;;17.93;100.00
5996;BME280;3026;53.612;7.278;2023-09-19T10:06:12;100484.53;;;17.83;100.00
5996;BME280;3026;53.612;7.278;2023-09-19T10:09:01;100479.69;;;17.78;100.00
5996;BME280;3026;53.612;7.278;2023-09-19T10:11:41;100474.16;;;17.78;100.00
5996;BME280;3026;53.612;7.278;2023-09-19T10:14:09;100482.81;;;17.82;100.00
5996;BME280;3026;53.612;7.278;2023-09-19T10:16:40;100475.78;;;17.86;100.00
5996;BME280;3026;53.612;7.278;2023-09-19T10:19:15;100467.50;;;17.86;100.00
5996;BME280;3026;53.612;7.278;2023-09-19T10:21:45;100469.44;;;17.86;100.00
5996;BME280;3026;53.612;7.278;2023-09-19T10:24:13;100466.44;;;17.87;100.00
5996;BME280;3026;53.612;7.278;2023-09-19T10:26:43;100477.94;;;17.84;100.00
5996;BME280;3026;53.612;7.278;2023-09-19T10:29:13;100468.41;;;17.80;100.00
5996;BME280;3026;53.612;7.278;2023-09-19T10:31:42;100474.16;;;17.78;100.00
5996;BME280;3026;53.612;7.278;2023-09-19T10:34:14;100476.69;;;17.80;100.00
5996;BME280;3026;53.612;7.278;2023-09-19T10:36:45;100460.94;;;17.87;100.00
5996;BME280;3026;53.612;7.278;2023-09-19T10:39:15;100460.16;;;17.98;100.00
5996;BME280;3026;53.612;7.278;2023-09-19T10:41:50;100469.66;;;18.02;100.00
5996;BME280;3026;53.612;7.278;2023-09-19T10:44:24;100449.25;;;18.03;100.00
5996;BME280;3026;53.612;7.278;2023-09-19T10:46:54;100451.25;;;18.15;100.00
5996;BME280;3026;53.612;7.278;2023-09-19T10:49:22;100448.25;;;18.16;100.00
5996;BME280;3026;53.612;7.278;2023-09-19T10:51:55;100448.19;;;18.23;100.00
5996;BME280;3026;53.612;7.278;2023-09-19T10:54:28;100443.44;;;18.30;100.00
5996;BME280;3026;53.612;7.278;2023-09-19T10:56:58;100439.41;;;18.44;100.00
5996;BME280;3026;53.612;7.278;2023-09-19T10:59:26;100448.28;;;18.46;100.00
5996;BME280;3026;53.612;7.278;2023-09-19T11:02:16;100442.16;;;18.44;100.00
5996;BME280;3026;53.612;7.278;2023-09-19T11:04:44;100431.72;;;18.46;100.00
5996;BME280;3026;53.612;7.278;2023-09-19T11:07:16;100443.97;;;18.50;100.00
5996;BME280;3026;53.612;7.278;2023-09-19T11:09:48;100431.72;;;18.46;100.00
5996;BME280;3026;53.612;7.278;2023-09-19T11:28:36;100423.94;;;18.85;100.00
5996;BME280;3026;53.612;7.278;2023-09-19T11:34:53;100416.72;;;18.84;100.00
5996;BME280;3026;53.612;7.278;2023-09-19T11:38:01;100398.94;;;18.80;100.00
5996;BME280;3026;53.612;7.278;2023-09-19T11:44:32;100395.59;;;18.78;100.00
5996;BME280;3026;53.612;7.278;2023-09-19T11:47:02;100386.72;;;18.76;100.00
5996;BME280;3026;53.612;7.278;2023-09-19T11:49:33;100371.81;;;18.77;100.00
5996;BME280;3026;53.612;7.278;2023-09-19T11:52:04;100386.72;;;18.76;100.00
5996;BME280;3026;53.612;7.278;2023-09-19T11:54:37;100388.84;;;18.74;100.00
5996;BME280;3026;53.612;7.278;2023-09-19T11:57:20;100364.22;;;18.72;100.00
5996;BME280;3026;53.612;7.278;2023-09-19T11:59:50;100374.44;;;18.72;100.00
5996;BME280;3026;53.612;7.278;2023-09-19T12:02:32;100385.97;;;18.69;100.00
5996;BME280;3026;53.612;7.278;2023-09-19T12:05:07;100383.94;;;18.64;100.00
5996;BME280;3026;53.612;7.278;2023-09-19T12:07:42;100374.97;;;18.62;100.00
5996;BME280;3026;53.612;7.278;2023-09-19T12:10:11;100377.50;;;18.63;100.00
5996;BME280;3026;53.612;7.278;2023-09-19T12:12:40;100362.00;;;18.62;100.00
5996;BME280;3026;53.612;7.278;2023-09-19T12:15:15;100366.94;;;18.60;100.00
5996;BME280;3026;53.612;7.278;2023-09-19T12:17:50;100363.56;;;18.58;100.00
5996;BME280;3026;53.612;7.278;2023-09-19T12:20:20;100353.00;;;18.55;100.00
5996;BME280;3026;53.612;7.278;2023-09-19T12:22:47;100340.28;;;18.54;100.00
5996;BME280;3026;53.612;7.278;2023-09-19T12:25:15;100354.34;;;18.53;100.00
5996;BME280;3026;53.612;7.278;2023-09-19T12:27:44;100334.16;;;18.52;100.00
5996;BME280;3026;53.612;7.278;2023-09-19T12:30:12;100338.59;;;18.53;100.00
5996;BME280;3026;53.612;7.278;2023-09-19T12:32:42;100347.97;;;18.52;100.00
5996;BME280;3026;53.612;7.278;2023-09-19T12:35:10;100338.47;;;18.48;100.00
5996;BME280;3026;53.612;7.278;2023-09-19T12:37:37;100334.84;;;18.48;100.00
5996;BME280;3026;53.612;7.278;2023-09-19T12:40:14;100345.06;;;18.47;100.00
5996;BME280;3026;53.612;7.278;2023-09-19T12:42:43;100331.75;;;18.44;100.00
5996;BME280;3026;53.612;7.278;2023-09-19T12:45:11;100334.97;;;18.41;100.00
5996;BME280;3026;53.612;7.278;2023-09-19T12:48:17;100331.00;;;18.37;100.00
5996;BME280;3026;53.612;7.278;2023-09-19T12:51:02;100338.91;;;18.33;100.00
5996;BME280;3026;53.612;7.278;2023-09-19T12:53:32;100331.47;;;18.34;100.00
5996;BME280;3026;53.612;7.278;2023-09-19T12:56:03;100321.75;;;18.31;100.00
5996;BME280;3026;53.612;7.278;2023-09-19T12:58:32;100319.22;;;18.30;100.00
5996;BME280;3026;53.612;7.278;2023-09-19T13:01:14;100327.97;;;18.27;100.00
5996;BME280;3026;53.612;7.278;2023-09-19T13:03:42;100322.44;;;18.27;100.00
5996;BME280;3026;53.612;7.278;2023-09-19T13:06:10;100327.34;;;18.25;100.00
5996;BME280;3026;53.612;7.278;2023-09-19T13:08:40;100342.00;;;18.25;100.00
5996;BME280;3026;53.612;7.278;2023-09-19T13:11:10;100341.16;;;18.25;100.00
5996;BME280;3026;53.612;7.278;2023-09-19T13:13:40;100356.50;;;18.21;100.00
5996;BME280;3026;53.612;7.278;2023-09-19T13:16:07;100340.88;;;18.15;100.00
5996;BME280;3026;53.612;7.278;2023-09-19T13:18:47;100310.88;;;18.06;100.00
5996;BME280;3026;53.612;7.278;2023-09-19T13:21:20;100313.50;;;18.01;100.00
5996;BME280;3026;53.612;7.278;2023-09-19T13:23:55;100310.13;;;17.99;100.00
5996;BME280;3026;53.612;7.278;2023-09-19T13:26:25;100303.06;;;18.03;100.00
5996;BME280;3026;53.612;7.278;2023-09-19T13:28:53;100300.28;;;18.03;100.00
5996;BME280;3026;53.612;7.278;2023-09-19T13:31:23;100301.97;;;18.04;100.00
5996;BME280;3026;53.612;7.278;2023-09-19T13:33:52;100306.22;;;18.07;100.00
5996;BME280;3026;53.612;7.278;2023-09-19T13:36:19;100300.44;;;18.08;100.00
5996;BME280;3026;53.612;7.278;2023-09-19T13:38:46;100314.25;;;18.08;100.00
5996;BME280;3026;53.612;7.278;2023-09-19T13:41:15;100303.22;;;18.08;100.00
5996;BME280;3026;53.612;7.278;2023-09-19T13:43:41;100297.69;;;18.08;100.00